sensor_id;sensor_type;location;lat;lon;timestamp;temperature;humidity
11132;DHT22;5620;53.570;9.718;2024-03-23T00:53:29;8.20;99.90
11132;DHT22;5620;53.570;9.718;2024-03-23T00:55:54;8.10;99.90
11132;DHT22;5620;53.570;9.718;2024-03-23T00:58:20;8.10;99.90
11132;DHT22;5620;53.570;9.718;2024-03-23T01:00:45;8.10;99.90
11132;DHT22;5620;53.570;9.718;2024-03-23T01:03:11;8.10;99.90
11132;DHT22;5620;53.570;9.718;2024-03-23T01:05:37;8.10;99.90
11132;DHT22;5620;53.570;9.718;2024-03-23T01:08:02;8.00;99.90
11132;DHT22;5620;53.570;9.718;2024-03-23T01:10:28;8.00;99.90
11132;DHT22;5620;53.570;9.718;2024-03-23T01:12:53;8.00;99.90
11132;DHT22;5620;53.570;9.718;2024-03-23T01:15:19;8.00;99.90
11132;DHT22;5620;53.570;9.718;2024-03-23T01:17:44;8.00;1.00
11132;DHT22;5620;53.570;9.718;2024-03-23T01:20:10;8.00;1.00
11132;DHT22;5620;53.570;9.718;2024-03-23T01:22:35;7.90;1.00
11132;DHT22;5620;53.570;9.718;2024-03-23T01:25:01;7.90;1.00
11132;DHT22;5620;53.570;9.718;2024-03-23T01:27:27;7.90;1.00
11132;DHT22;5620;53.570;9.718;2024-03-23T01:29:52;7.90;1.00
11132;DHT22;5620;53.570;9.718;2024-03-23T01:32:18;7.90;1.00
11132;DHT22;5620;53.570;9.718;2024-03-23T01:34:44;7.90;1.00
11132;DHT22;5620;53.570;9.718;2024-03-23T01:37:10;7.90;1.00
11132;DHT22;5620;53.570;9.718;2024-03-23T01:39:35;7.90;1.00
11132;DHT22;5620;53.570;9.718;2024-03-23T01:42:01;7.90;1.00
11132;DHT22;5620;53.570;9.718;2024-03-23T01:44:26;7.80;1.00
11132;DHT22;5620;53.570;9.718;2024-03-23T01:46:52;7.80;1.00
11132;DHT22;5620;53.570;9.718;2024-03-23T01:49:17;7.80;1.00
11132;DHT22;5620;53.570;9.718;2024-03-23T01:51:44;7.80;1.00
11132;DHT22;5620;53.570;9.718;2024-03-23T01:54:10;7.80;1.00
11132;DHT22;5620;53.570;9.718;2024-03-23T01:56:36;7.80;1.00
11132;DHT22;5620;53.570;9.718;2024-03-23T01:59:07;7.80;1.00
11132;DHT22;5620;53.570;9.718;2024-03-23T02:01:35;7.80;1.00
11132;DHT22;5620;53.570;9.718;2024-03-23T02:04:00;7.80;1.00
11132;DHT22;5620;53.570;9.718;2024-03-23T02:06:27;7.70;1.00
11132;DHT22;5620;53.570;9.718;2024-03-23T02:08:53;7.70;1.00
11132;DHT22;5620;53.570;9.718;2024-03-23T02:11:19;7.70;1.00
11132;DHT22;5620;53.570;9.718;2024-03-23T02:13:45;7.60;1.00
11132;DHT22;5620;53.570;9.718;2024-03-23T02:16:10;7.60;1.00
11132;DHT22;5620;53.570;9.718;2024-03-23T02:18:36;7.50;23.00
11132;DHT22;5620;53.570;9.718;2024-03-23T02:21:03;7.50;50.40
11132;DHT22;5620;53.570;9.718;2024-03-23T02:23:28;7.50;63.30
11132;DHT22;5620;53.570;9.718;2024-03-23T02:25:54;7.50;76.80
11132;DHT22;5620;53.570;9.718;2024-03-23T02:28:20;7.50;93.40
11132;DHT22;5620;53.570;9.718;2024-03-23T02:30:45;7.50;95.70
11132;DHT22;5620;53.570;9.718;2024-03-23T02:33:11;7.50;99.00
11132;DHT22;5620;53.570;9.718;2024-03-23T02:35:37;7.50;99.90
11132;DHT22;5620;53.570;9.718;2024-03-23T02:38:02;7.50;99.90
11132;DHT22;5620;53.570;9.718;2024-03-23T02:40:28;7.50;99.90
11132;DHT22;5620;53.570;9.718;2024-03-23T02:42:54;7.40;99.90
11132;DHT22;5620;53.570;9.718;2024-03-23T02:45:19;7.40;99.90
11132;DHT22;5620;53.570;9.718;2024-03-23T02:47:45;7.40;99.90
11132;DHT22;5620;53.570;9.718;2024-03-23T02:50:11;7.40;99.90
11132;DHT22;5620;53.570;9.718;2024-03-23T02:52:36;7.40;99.90
11132;DHT22;5620;53.570;9.718;2024-03-23T02:55:03;7.40;99.90
11132;DHT22;5620;53.570;9.718;2024-03-23T02:57:28;7.40;99.90
11132;DHT22;5620;53.570;9.718;2024-03-23T02:59:54;7.40;99.90
11132;DHT22;5620;53.570;9.718;2024-03-23T03:02:20;7.40;99.90
11132;DHT22;5620;53.570;9.718;2024-03-23T03:04:46;7.40;99.90
11132;DHT22;5620;53.570;9.718;2024-03-23T03:07:11;7.40;99.90
11132;DHT22;5620;53.570;9.718;2024-03-23T03:09:37;7.40;99.90
11132;DHT22;5620;53.570;9.718;2024-03-23T03:12:03;7.40;99.90
11132;DHT22;5620;53.570;9.718;2024-03-23T03:14:28;7.40;99.90
11132;DHT22;5620;53.570;9.718;2024-03-23T03:16:54;7.40;99.90
11132;DHT22;5620;53.570;9.718;2024-03-23T03:19:20;7.40;1.00
11132;DHT22;5620;53.570;9.718;2024-03-23T03:21:45;7.40;1.00
11132;DHT22;5620;53.570;9.718;2024-03-23T03:24:11;7.50;1.00
11132;DHT22;5620;53.570;9.718;2024-03-23T03:26:36;7.50;1.00
11132;DHT22;5620;53.570;9.718;2024-03-23T03:29:02;7.50;1.00
11132;DHT22;5620;53.570;9.718;2024-03-23T03:31:28;7.40;1.00
11132;DHT22;5620;53.570;9.718;2024-03-23T03:33:53;7.40;1.00
11132;DHT22;5620;53.570;9.718;2024-03-23T03:36:19;7.40;1.00
11132;DHT22;5620;53.570;9.718;2024-03-23T03:38:44;7.40;1.00
11132;DHT22;5620;53.570;9.718;2024-03-23T03:41:10;7.40;1.00
11132;DHT22;5620;53.570;9.718;2024-03-23T03:43:35;7.40;1.00
11132;DHT22;5620;53.570;9.718;2024-03-23T03:46:01;7.40;1.00
11132;DHT22;5620;53.570;9.718;2024-03-23T03:48:27;7.30;1.00
11132;DHT22;5620;53.570;9.718;2024-03-23T03:50:53;7.30;1.00
11132;DHT22;5620;53.570;9.718;2024-03-23T03:53:19;7.30;1.00
11132;DHT22;5620;53.570;9.718;2024-03-23T03:55:45;7.30;1.00
11132;DHT22;5620;53.570;9.718;2024-03-23T03:58:11;7.30;1.00
11132;DHT22;5620;53.570;9.718;2024-03-23T04:00:36;7.30;1.00
11132;DHT22;5620;53.570;9.718;2024-03-23T04:03:02;7.20;1.00
11132;DHT22;5620;53.570;9.718;2024-03-23T04:05:28;7.20;1.00
11132;DHT22;5620;53.570;9.718;2024-03-23T04:07:53;7.20;1.00
11132;DHT22;5620;53.570;9.718;2024-03-23T04:10:19;7.20;1.00
11132;DHT22;5620;53.570;9.718;2024-03-23T04:12:45;7.20;1.00
11132;DHT22;5620;53.570;9.718;2024-03-23T04:15:10;7.20;1.00
11132;DHT22;5620;53.570;9.718;2024-03-23T04:17:36;7.20;1.00
11132;DHT22;5620;53.570;9.718;2024-03-23T04:20:03;7.10;1.00
11132;DHT22;5620;53.570;9.718;2024-03-23T04:22:28;7.20;1.00
11132;DHT22;5620;53.570;9.718;2024-03-23T04:24:55;7.10;1.00
11132;DHT22;5620;53.570;9.718;2024-03-23T04:27:20;7.20;1.00
11132;DHT22;5620;53.570;9.718;2024-03-23T04:29:52;7.20;1.00
11132;DHT22;5620;53.570;9.718;2024-03-23T04:32:18;7.10;1.00
11132;DHT22;5620;53.570;9.718;2024-03-23T04:34:44;7.10;1.00
11132;DHT22;5620;53.570;9.718;2024-03-23T04:37:10;7.00;1.00
11132;DHT22;5620;53.570;9.718;2024-03-23T04:39:38;7.10;1.00
11132;DHT22;5620;53.570;9.718;2024-03-23T04:42:04;7.10;1.00
11132;DHT22;5620;53.570;9.718;2024-03-23T04:44:30;7.10;1.00
11132;DHT22;5620;53.570;9.718;2024-03-23T04:46:56;7.10;1.00
11132;DHT22;5620;53.570;9.718;2024-03-23T04:49:21;7.10;1.00
11132;DHT22;5620;53.570;9.718;2024-03-23T04:51:47;7.00;1.00
11132;DHT22;5620;53.570;9.718;2024-03-23T04:54:13;7.00;1.00
11132;DHT22;5620;53.570;9.718;2024-03-23T04:56:38;7.00;1.00
11132;DHT22;5620;53.570;9.718;2024-03-23T04:59:04;7.00;1.00
11132;DHT22;5620;53.570;9.718;2024-03-23T05:01:29;7.00;21.10
11132;DHT22;5620;53.570;9.718;2024-03-23T05:03:55;7.00;23.50
11132;DHT22;5620;53.570;9.718;2024-03-23T05:06:20;7.00;13.50
11132;DHT22;5620;53.570;9.718;2024-03-23T05:08:46;7.00;28.70
11132;DHT22;5620;53.570;9.718;2024-03-23T05:11:11;7.00;25.60
11132;DHT22;5620;53.570;9.718;2024-03-23T05:13:37;7.00;51.50
11132;DHT22;5620;53.570;9.718;2024-03-23T05:16:03;7.00;75.20
11132;DHT22;5620;53.570;9.718;2024-03-23T05:18:28;7.00;81.10
11132;DHT22;5620;53.570;9.718;2024-03-23T05:20:58;7.00;91.00
11132;DHT22;5620;53.570;9.718;2024-03-23T05:23:24;7.00;99.70
11132;DHT22;5620;53.570;9.718;2024-03-23T05:25:50;7.00;87.40
11132;DHT22;5620;53.570;9.718;2024-03-23T05:28:16;7.00;88.30
11132;DHT22;5620;53.570;9.718;2024-03-23T05:30:41;7.00;99.90
11132;DHT22;5620;53.570;9.718;2024-03-23T05:33:07;7.00;99.90
11132;DHT22;5620;53.570;9.718;2024-03-23T05:35:32;7.10;99.90
11132;DHT22;5620;53.570;9.718;2024-03-23T05:37:58;7.10;99.90
11132;DHT22;5620;53.570;9.718;2024-03-23T05:40:25;7.10;99.90
11132;DHT22;5620;53.570;9.718;2024-03-23T05:42:51;7.10;76.30
11132;DHT22;5620;53.570;9.718;2024-03-23T05:45:16;7.10;51.30
11132;DHT22;5620;53.570;9.718;2024-03-23T05:47:42;7.10;74.40
11132;DHT22;5620;53.570;9.718;2024-03-23T05:50:08;7.20;91.70
11132;DHT22;5620;53.570;9.718;2024-03-23T05:52:33;7.20;44.10
11132;DHT22;5620;53.570;9.718;2024-03-23T05:54:59;7.20;16.60
11132;DHT22;5620;53.570;9.718;2024-03-23T05:57:24;7.20;1.00
11132;DHT22;5620;53.570;9.718;2024-03-23T05:59:50;7.20;1.00
11132;DHT22;5620;53.570;9.718;2024-03-23T06:02:15;7.20;1.00
11132;DHT22;5620;53.570;9.718;2024-03-23T06:04:41;7.10;1.00
11132;DHT22;5620;53.570;9.718;2024-03-23T06:07:06;7.10;1.00
11132;DHT22;5620;53.570;9.718;2024-03-23T06:09:32;7.10;1.00
11132;DHT22;5620;53.570;9.718;2024-03-23T06:11:58;7.00;1.00
11132;DHT22;5620;53.570;9.718;2024-03-23T06:14:23;7.00;1.00
11132;DHT22;5620;53.570;9.718;2024-03-23T06:16:49;7.00;1.00
11132;DHT22;5620;53.570;9.718;2024-03-23T06:19:14;7.00;1.00
11132;DHT22;5620;53.570;9.718;2024-03-23T06:21:43;6.90;1.00
11132;DHT22;5620;53.570;9.718;2024-03-23T06:24:10;6.90;1.00
11132;DHT22;5620;53.570;9.718;2024-03-23T06:26:35;6.80;1.00
11132;DHT22;5620;53.570;9.718;2024-03-23T06:29:01;6.90;1.00
11132;DHT22;5620;53.570;9.718;2024-03-23T06:31:27;6.90;1.00
11132;DHT22;5620;53.570;9.718;2024-03-23T06:33:52;6.80;1.00
11132;DHT22;5620;53.570;9.718;2024-03-23T06:36:18;6.80;1.00
11132;DHT22;5620;53.570;9.718;2024-03-23T06:38:45;6.80;1.00
11132;DHT22;5620;53.570;9.718;2024-03-23T06:41:10;6.80;1.00
11132;DHT22;5620;53.570;9.718;2024-03-23T06:43:36;6.70;1.00
11132;DHT22;5620;53.570;9.718;2024-03-23T06:46:02;6.80;1.00
11132;DHT22;5620;53.570;9.718;2024-03-23T06:48:28;6.80;8.30
11132;DHT22;5620;53.570;9.718;2024-03-23T06:50:57;6.80;8.80
11132;DHT22;5620;53.570;9.718;2024-03-23T06:53:23;6.80;60.50
11132;DHT22;5620;53.570;9.718;2024-03-23T06:55:53;6.90;93.20
11132;DHT22;5620;53.570;9.718;2024-03-23T06:58:23;7.00;79.00
11132;DHT22;5620;53.570;9.718;2024-03-23T07:00:49;7.00;86.10
11132;DHT22;5620;53.570;9.718;2024-03-23T07:03:16;7.10;69.00
11132;DHT22;5620;53.570;9.718;2024-03-23T07:05:42;7.30;1.00
11132;DHT22;5620;53.570;9.718;2024-03-23T07:08:07;7.20;1.00
11132;DHT22;5620;53.570;9.718;2024-03-23T07:10:33;7.20;1.00
11132;DHT22;5620;53.570;9.718;2024-03-23T07:12:58;7.20;1.00
11132;DHT22;5620;53.570;9.718;2024-03-23T07:15:25;7.20;1.00
11132;DHT22;5620;53.570;9.718;2024-03-23T07:17:50;7.20;1.00
11132;DHT22;5620;53.570;9.718;2024-03-23T07:20:16;7.30;1.00
11132;DHT22;5620;53.570;9.718;2024-03-23T07:22:41;7.50;1.00
11132;DHT22;5620;53.570;9.718;2024-03-23T07:25:07;7.60;1.00
11132;DHT22;5620;53.570;9.718;2024-03-23T07:27:33;7.70;1.00
11132;DHT22;5620;53.570;9.718;2024-03-23T07:29:58;7.90;1.00
11132;DHT22;5620;53.570;9.718;2024-03-23T07:32:24;8.10;1.00
11132;DHT22;5620;53.570;9.718;2024-03-23T07:34:49;8.20;99.90
11132;DHT22;5620;53.570;9.718;2024-03-23T07:37:15;8.40;99.90
11132;DHT22;5620;53.570;9.718;2024-03-23T07:39:40;8.50;99.90
11132;DHT22;5620;53.570;9.718;2024-03-23T07:42:06;8.60;99.90
11132;DHT22;5620;53.570;9.718;2024-03-23T07:44:32;8.70;99.90
11132;DHT22;5620;53.570;9.718;2024-03-23T07:47:00;8.80;99.80
11132;DHT22;5620;53.570;9.718;2024-03-23T07:49:26;8.90;75.10
11132;DHT22;5620;53.570;9.718;2024-03-23T07:51:51;9.00;35.20
11132;DHT22;5620;53.570;9.718;2024-03-23T07:54:17;9.10;1.00
11132;DHT22;5620;53.570;9.718;2024-03-23T07:56:42;9.20;1.00
11132;DHT22;5620;53.570;9.718;2024-03-23T07:59:08;9.20;1.00
11132;DHT22;5620;53.570;9.718;2024-03-23T08:01:33;9.30;1.00
11132;DHT22;5620;53.570;9.718;2024-03-23T08:03:59;9.30;1.00
11132;DHT22;5620;53.570;9.718;2024-03-23T08:06:25;9.40;99.90
11132;DHT22;5620;53.570;9.718;2024-03-23T08:08:57;9.50;99.90
11132;DHT22;5620;53.570;9.718;2024-03-23T08:11:22;9.60;99.90
11132;DHT22;5620;53.570;9.718;2024-03-23T08:13:48;9.60;99.90
11132;DHT22;5620;53.570;9.718;2024-03-23T08:16:13;9.60;99.90
11132;DHT22;5620;53.570;9.718;2024-03-23T08:18:39;9.60;75.50
11132;DHT22;5620;53.570;9.718;2024-03-23T08:21:06;9.70;29.40
11132;DHT22;5620;53.570;9.718;2024-03-23T08:23:33;9.70;1.00
11132;DHT22;5620;53.570;9.718;2024-03-23T08:26:00;9.70;1.00
11132;DHT22;5620;53.570;9.718;2024-03-23T08:28:27;9.80;1.00
11132;DHT22;5620;53.570;9.718;2024-03-23T08:30:53;9.90;1.00
11132;DHT22;5620;53.570;9.718;2024-03-23T08:33:19;10.00;99.90
11132;DHT22;5620;53.570;9.718;2024-03-23T08:35:59;10.10;99.90
11132;DHT22;5620;53.570;9.718;2024-03-23T08:38:26;10.20;99.90
11132;DHT22;5620;53.570;9.718;2024-03-23T08:41:01;10.20;99.90
11132;DHT22;5620;53.570;9.718;2024-03-23T08:43:27;10.40;99.90
11132;DHT22;5620;53.570;9.718;2024-03-23T08:45:53;10.50;99.90
11132;DHT22;5620;53.570;9.718;2024-03-23T08:48:21;10.70;99.90
11132;DHT22;5620;53.570;9.718;2024-03-23T08:50:47;11.00;99.90
11132;DHT22;5620;53.570;9.718;2024-03-23T08:53:13;11.50;99.90
11132;DHT22;5620;53.570;9.718;2024-03-23T08:55:39;11.80;93.10
11132;DHT22;5620;53.570;9.718;2024-03-23T08:58:04;12.00;1.00
11132;DHT22;5620;53.570;9.718;2024-03-23T09:00:30;12.10;1.00
11132;DHT22;5620;53.570;9.718;2024-03-23T09:02:56;12.10;1.00
11132;DHT22;5620;53.570;9.718;2024-03-23T09:05:21;12.00;1.00
11132;DHT22;5620;53.570;9.718;2024-03-23T09:07:47;11.90;1.00
11132;DHT22;5620;53.570;9.718;2024-03-23T09:10:12;12.00;1.00
11132;DHT22;5620;53.570;9.718;2024-03-23T09:12:38;12.30;1.00
11132;DHT22;5620;53.570;9.718;2024-03-23T09:15:03;12.70;1.00
11132;DHT22;5620;53.570;9.718;2024-03-23T09:17:29;12.80;1.00
11132;DHT22;5620;53.570;9.718;2024-03-23T09:19:55;12.50;1.00
11132;DHT22;5620;53.570;9.718;2024-03-23T09:22:20;12.30;99.90
11132;DHT22;5620;53.570;9.718;2024-03-23T09:24:46;12.30;99.90
11132;DHT22;5620;53.570;9.718;2024-03-23T09:27:11;12.40;99.90
11132;DHT22;5620;53.570;9.718;2024-03-23T09:29:37;12.70;99.90
11132;DHT22;5620;53.570;9.718;2024-03-23T09:32:02;12.80;99.90
11132;DHT22;5620;53.570;9.718;2024-03-23T09:34:28;12.70;99.90
11132;DHT22;5620;53.570;9.718;2024-03-23T09:36:53;12.70;99.90
11132;DHT22;5620;53.570;9.718;2024-03-23T09:39:19;12.80;99.90
11132;DHT22;5620;53.570;9.718;2024-03-23T09:41:45;12.80;99.90
11132;DHT22;5620;53.570;9.718;2024-03-23T09:44:11;12.70;99.90
11132;DHT22;5620;53.570;9.718;2024-03-23T09:46:36;12.40;99.90
11132;DHT22;5620;53.570;9.718;2024-03-23T09:49:03;12.00;99.90
11132;DHT22;5620;53.570;9.718;2024-03-23T09:51:29;11.80;99.90
11132;DHT22;5620;53.570;9.718;2024-03-23T09:53:54;11.80;99.90
11132;DHT22;5620;53.570;9.718;2024-03-23T09:56:20;12.10;99.90
11132;DHT22;5620;53.570;9.718;2024-03-23T09:58:46;12.30;99.90
11132;DHT22;5620;53.570;9.718;2024-03-23T10:01:12;12.50;99.90
11132;DHT22;5620;53.570;9.718;2024-03-23T10:03:44;12.50;99.90
11132;DHT22;5620;53.570;9.718;2024-03-23T10:06:10;12.50;99.90
11132;DHT22;5620;53.570;9.718;2024-03-23T10:08:35;12.40;99.90
11132;DHT22;5620;53.570;9.718;2024-03-23T10:11:13;12.30;99.90
11132;DHT22;5620;53.570;9.718;2024-03-23T10:13:44;12.20;99.90
11132;DHT22;5620;53.570;9.718;2024-03-23T10:16:10;12.00;99.90
11132;DHT22;5620;53.570;9.718;2024-03-23T10:18:39;11.80;99.90
11132;DHT22;5620;53.570;9.718;2024-03-23T10:23:30;11.40;99.90
11132;DHT22;5620;53.570;9.718;2024-03-23T10:26:12;11.10;99.90
11132;DHT22;5620;53.570;9.718;2024-03-23T10:31:21;11.70;99.90
11132;DHT22;5620;53.570;9.718;2024-03-23T10:33:47;12.10;99.90
11132;DHT22;5620;53.570;9.718;2024-03-23T10:36:13;12.10;99.00
11132;DHT22;5620;53.570;9.718;2024-03-23T10:38:43;12.00;98.20
11132;DHT22;5620;53.570;9.718;2024-03-23T10:41:10;11.80;97.50
11132;DHT22;5620;53.570;9.718;2024-03-23T10:43:37;11.80;98.10
11132;DHT22;5620;53.570;9.718;2024-03-23T10:46:03;12.60;98.40
11132;DHT22;5620;53.570;9.718;2024-03-23T10:48:29;13.70;95.00
11132;DHT22;5620;53.570;9.718;2024-03-23T10:50:54;14.30;89.50
11132;DHT22;5620;53.570;9.718;2024-03-23T10:53:26;14.20;76.10
11132;DHT22;5620;53.570;9.718;2024-03-23T10:55:54;14.00;69.90
11132;DHT22;5620;53.570;9.718;2024-03-23T10:58:26;13.50;68.30
11132;DHT22;5620;53.570;9.718;2024-03-23T11:00:53;12.70;78.70
11132;DHT22;5620;53.570;9.718;2024-03-23T11:03:37;12.40;89.90
11132;DHT22;5620;53.570;9.718;2024-03-23T11:06:04;12.50;91.90
11132;DHT22;5620;53.570;9.718;2024-03-23T11:08:37;13.20;91.50
11132;DHT22;5620;53.570;9.718;2024-03-23T11:13:37;15.30;79.60
11132;DHT22;5620;53.570;9.718;2024-03-23T11:16:16;16.30;63.40
11132;DHT22;5620;53.570;9.718;2024-03-23T11:18:42;17.60;50.00
11132;DHT22;5620;53.570;9.718;2024-03-23T11:21:08;18.90;19.80
11132;DHT22;5620;53.570;9.718;2024-03-23T11:23:33;20.50;1.00
11132;DHT22;5620;53.570;9.718;2024-03-23T11:25:59;22.20;1.00
11132;DHT22;5620;53.570;9.718;2024-03-23T11:28:24;22.80;1.00
11132;DHT22;5620;53.570;9.718;2024-03-23T11:30:50;21.70;1.00
11132;DHT22;5620;53.570;9.718;2024-03-23T11:33:15;20.90;1.00
11132;DHT22;5620;53.570;9.718;2024-03-23T11:35:41;20.20;1.00
11132;DHT22;5620;53.570;9.718;2024-03-23T11:38:10;20.60;1.00
11132;DHT22;5620;53.570;9.718;2024-03-23T11:40:41;21.50;1.00
11132;DHT22;5620;53.570;9.718;2024-03-23T11:43:08;21.40;1.00
11132;DHT22;5620;53.570;9.718;2024-03-23T11:45:39;19.40;1.00
11132;DHT22;5620;53.570;9.718;2024-03-23T11:48:11;16.90;1.00
11132;DHT22;5620;53.570;9.718;2024-03-23T11:50:42;13.10;1.00
11132;DHT22;5620;53.570;9.718;2024-03-23T11:53:08;8.50;1.00
11132;DHT22;5620;53.570;9.718;2024-03-23T11:56:09;6.30;1.00
11132;DHT22;5620;53.570;9.718;2024-03-23T11:58:35;5.00;16.20
11132;DHT22;5620;53.570;9.718;2024-03-23T12:01:03;4.50;42.00
11132;DHT22;5620;53.570;9.718;2024-03-23T12:03:29;4.40;37.80
11132;DHT22;5620;53.570;9.718;2024-03-23T12:05:58;4.70;50.50
11132;DHT22;5620;53.570;9.718;2024-03-23T12:08:28;5.10;65.40
11132;DHT22;5620;53.570;9.718;2024-03-23T12:11:11;6.40;96.20
11132;DHT22;5620;53.570;9.718;2024-03-23T12:13:37;8.50;99.90
11132;DHT22;5620;53.570;9.718;2024-03-23T12:16:17;8.90;99.90
11132;DHT22;5620;53.570;9.718;2024-03-23T12:18:47;7.90;99.90
11132;DHT22;5620;53.570;9.718;2024-03-23T12:21:12;7.20;99.90
11132;DHT22;5620;53.570;9.718;2024-03-23T12:23:41;6.80;99.90
11132;DHT22;5620;53.570;9.718;2024-03-23T12:26:07;6.30;99.90
11132;DHT22;5620;53.570;9.718;2024-03-23T12:28:33;6.20;1.00
11132;DHT22;5620;53.570;9.718;2024-03-23T12:30:59;6.00;99.90
11132;DHT22;5620;53.570;9.718;2024-03-23T12:33:24;5.90;1.00
11132;DHT22;5620;53.570;9.718;2024-03-23T12:35:51;5.70;78.10
11132;DHT22;5620;53.570;9.718;2024-03-23T12:38:17;5.50;99.90
11132;DHT22;5620;53.570;9.718;2024-03-23T12:40:46;5.40;1.00
11132;DHT22;5620;53.570;9.718;2024-03-23T12:43:12;5.60;33.00
11132;DHT22;5620;53.570;9.718;2024-03-23T12:45:37;5.90;1.00
11132;DHT22;5620;53.570;9.718;2024-03-23T12:48:03;6.20;1.00
11132;DHT22;5620;53.570;9.718;2024-03-23T12:50:28;6.50;99.90
11132;DHT22;5620;53.570;9.718;2024-03-23T12:52:54;7.10;1.00
11132;DHT22;5620;53.570;9.718;2024-03-23T12:55:19;7.30;1.00
11132;DHT22;5620;53.570;9.718;2024-03-23T12:57:45;7.10;1.00
11132;DHT22;5620;53.570;9.718;2024-03-23T13:00:11;6.90;1.00
11132;DHT22;5620;53.570;9.718;2024-03-23T13:02:37;6.80;1.00
11132;DHT22;5620;53.570;9.718;2024-03-23T13:05:03;6.90;99.90
11132;DHT22;5620;53.570;9.718;2024-03-23T13:07:28;7.10;99.90
11132;DHT22;5620;53.570;9.718;2024-03-23T13:09:54;7.30;1.00
11132;DHT22;5620;53.570;9.718;2024-03-23T13:12:19;7.40;1.00
11132;DHT22;5620;53.570;9.718;2024-03-23T13:14:45;7.70;1.00
11132;DHT22;5620;53.570;9.718;2024-03-23T13:17:11;8.00;1.00
11132;DHT22;5620;53.570;9.718;2024-03-23T13:19:37;9.70;1.00
11132;DHT22;5620;53.570;9.718;2024-03-23T13:22:02;10.70;1.00
11132;DHT22;5620;53.570;9.718;2024-03-23T13:24:28;12.10;99.90
11132;DHT22;5620;53.570;9.718;2024-03-23T13:26:55;13.00;99.90
11132;DHT22;5620;53.570;9.718;2024-03-23T13:29:21;14.80;1.00
11132;DHT22;5620;53.570;9.718;2024-03-23T13:31:47;16.10;1.00
11132;DHT22;5620;53.570;9.718;2024-03-23T13:34:13;16.20;1.00
11132;DHT22;5620;53.570;9.718;2024-03-23T13:36:38;16.40;99.90
11132;DHT22;5620;53.570;9.718;2024-03-23T13:39:04;17.60;99.90
11132;DHT22;5620;53.570;9.718;2024-03-23T13:41:29;17.50;25.10
11132;DHT22;5620;53.570;9.718;2024-03-23T13:43:55;16.50;1.00
11132;DHT22;5620;53.570;9.718;2024-03-23T13:46:20;15.50;1.00
11132;DHT22;5620;53.570;9.718;2024-03-23T13:48:46;14.90;1.00
11132;DHT22;5620;53.570;9.718;2024-03-23T13:51:12;14.60;1.00
11132;DHT22;5620;53.570;9.718;2024-03-23T13:53:37;14.70;99.90
11132;DHT22;5620;53.570;9.718;2024-03-23T13:56:03;14.80;99.90
11132;DHT22;5620;53.570;9.718;2024-03-23T13:58:28;15.80;99.90
11132;DHT22;5620;53.570;9.718;2024-03-23T14:00:56;17.40;99.90
11132;DHT22;5620;53.570;9.718;2024-03-23T14:03:22;18.60;99.90
11132;DHT22;5620;53.570;9.718;2024-03-23T14:05:48;20.20;99.90
11132;DHT22;5620;53.570;9.718;2024-03-23T14:08:13;21.70;88.90
11132;DHT22;5620;53.570;9.718;2024-03-23T14:10:42;21.60;8.70
11132;DHT22;5620;53.570;9.718;2024-03-23T14:13:07;22.30;1.00
11132;DHT22;5620;53.570;9.718;2024-03-23T14:15:33;23.40;1.00
11132;DHT22;5620;53.570;9.718;2024-03-23T14:17:59;24.30;1.00
11132;DHT22;5620;53.570;9.718;2024-03-23T14:20:25;23.60;1.00
11132;DHT22;5620;53.570;9.718;2024-03-23T14:22:51;21.70;1.00
11132;DHT22;5620;53.570;9.718;2024-03-23T14:25:17;19.90;1.00
11132;DHT22;5620;53.570;9.718;2024-03-23T14:27:46;18.10;1.00
11132;DHT22;5620;53.570;9.718;2024-03-23T14:30:12;16.70;1.00
11132;DHT22;5620;53.570;9.718;2024-03-23T14:32:38;15.30;1.00
11132;DHT22;5620;53.570;9.718;2024-03-23T14:35:04;14.30;1.00
11132;DHT22;5620;53.570;9.718;2024-03-23T14:37:30;13.50;1.00
11132;DHT22;5620;53.570;9.718;2024-03-23T14:39:56;12.40;1.00
11132;DHT22;5620;53.570;9.718;2024-03-23T14:42:22;11.20;1.00
11132;DHT22;5620;53.570;9.718;2024-03-23T14:44:47;10.10;1.00
11132;DHT22;5620;53.570;9.718;2024-03-23T14:47:13;9.10;4.40
11132;DHT22;5620;53.570;9.718;2024-03-23T14:49:38;8.30;26.60
11132;DHT22;5620;53.570;9.718;2024-03-23T14:52:04;8.00;57.10
11132;DHT22;5620;53.570;9.718;2024-03-23T14:54:30;7.70;81.90
11132;DHT22;5620;53.570;9.718;2024-03-23T14:56:55;7.40;99.90
11132;DHT22;5620;53.570;9.718;2024-03-23T14:59:21;7.40;99.90
11132;DHT22;5620;53.570;9.718;2024-03-23T15:01:46;7.90;99.90
11132;DHT22;5620;53.570;9.718;2024-03-23T15:04:12;9.80;1.00
11132;DHT22;5620;53.570;9.718;2024-03-23T15:06:37;12.20;94.00
11132;DHT22;5620;53.570;9.718;2024-03-23T15:09:03;14.50;22.00
11132;DHT22;5620;53.570;9.718;2024-03-23T15:11:28;17.10;1.00
11132;DHT22;5620;53.570;9.718;2024-03-23T15:13:54;19.80;99.90
11132;DHT22;5620;53.570;9.718;2024-03-23T15:16:19;21.20;99.90
11132;DHT22;5620;53.570;9.718;2024-03-23T15:18:45;22.20;95.00
11132;DHT22;5620;53.570;9.718;2024-03-23T15:21:10;22.90;57.90
11132;DHT22;5620;53.570;9.718;2024-03-23T15:23:36;20.90;5.50
11132;DHT22;5620;53.570;9.718;2024-03-23T15:26:02;19.30;6.10
11132;DHT22;5620;53.570;9.718;2024-03-23T15:28:28;19.10;17.20
11132;DHT22;5620;53.570;9.718;2024-03-23T15:30:58;19.60;5.90
11132;DHT22;5620;53.570;9.718;2024-03-23T15:33:24;18.10;1.00
11132;DHT22;5620;53.570;9.718;2024-03-23T15:35:49;16.40;1.00
11132;DHT22;5620;53.570;9.718;2024-03-23T15:38:15;15.20;6.10
11132;DHT22;5620;53.570;9.718;2024-03-23T15:40:40;14.50;18.30
11132;DHT22;5620;53.570;9.718;2024-03-23T15:43:06;14.10;26.40
11132;DHT22;5620;53.570;9.718;2024-03-23T15:45:31;13.70;34.30
11132;DHT22;5620;53.570;9.718;2024-03-23T15:47:57;13.00;41.00
11132;DHT22;5620;53.570;9.718;2024-03-23T15:50:22;12.40;52.20
11132;DHT22;5620;53.570;9.718;2024-03-23T15:52:48;11.80;61.70
11132;DHT22;5620;53.570;9.718;2024-03-23T15:55:13;11.40;69.30
11132;DHT22;5620;53.570;9.718;2024-03-23T15:57:40;11.00;76.40
11132;DHT22;5620;53.570;9.718;2024-03-23T16:00:06;10.40;84.30
11132;DHT22;5620;53.570;9.718;2024-03-23T16:02:31;9.70;92.80
11132;DHT22;5620;53.570;9.718;2024-03-23T16:04:57;9.40;98.50
11132;DHT22;5620;53.570;9.718;2024-03-23T16:07:22;9.40;99.90
11132;DHT22;5620;53.570;9.718;2024-03-23T16:09:48;9.60;99.90
11132;DHT22;5620;53.570;9.718;2024-03-23T16:12:13;9.80;99.90
11132;DHT22;5620;53.570;9.718;2024-03-23T16:14:39;9.80;99.90
11132;DHT22;5620;53.570;9.718;2024-03-23T16:17:04;10.10;99.90
11132;DHT22;5620;53.570;9.718;2024-03-23T16:19:30;10.40;99.90
11132;DHT22;5620;53.570;9.718;2024-03-23T16:21:55;10.80;99.90
11132;DHT22;5620;53.570;9.718;2024-03-23T16:24:21;11.00;99.90
11132;DHT22;5620;53.570;9.718;2024-03-23T16:26:47;11.10;99.90
11132;DHT22;5620;53.570;9.718;2024-03-23T16:29:12;11.00;99.90
11132;DHT22;5620;53.570;9.718;2024-03-23T16:31:38;11.00;99.90
11132;DHT22;5620;53.570;9.718;2024-03-23T16:34:04;11.10;99.90
11132;DHT22;5620;53.570;9.718;2024-03-23T16:36:29;11.10;99.90
11132;DHT22;5620;53.570;9.718;2024-03-23T16:38:55;11.00;99.90
11132;DHT22;5620;53.570;9.718;2024-03-23T16:41:20;10.90;99.90
11132;DHT22;5620;53.570;9.718;2024-03-23T16:43:46;11.10;99.90
11132;DHT22;5620;53.570;9.718;2024-03-23T16:46:12;11.30;99.90
11132;DHT22;5620;53.570;9.718;2024-03-23T16:48:39;11.10;99.90
11132;DHT22;5620;53.570;9.718;2024-03-23T16:51:04;10.70;99.90
11132;DHT22;5620;53.570;9.718;2024-03-23T16:53:31;10.30;99.90
11132;DHT22;5620;53.570;9.718;2024-03-23T16:56:01;10.00;99.90